Flight Track Log - Related Links

Times and Time Zones

All times are in EDT time to prevent confusion due to time zone crossing. See the AMF1062 flight status page for this flight to view local times or setup timezone preferences in your user account.

Time Position Orientation Groundspeed Altitude Reporting Facility
EDT Latitude Longitude Course Direction KTS MPH feet Rate Location/Type
Fri 18:35:07 43.5647 -116.2919 132° Southeast 161 185 5,400  Level Salt Lake Center
Fri 18:36:09 43.5131 -116.2569 154° Southeast 197 227 7,100 1,317 Climbing Salt Lake Center
Fri 18:37:10 43.4839 -116.1886 120° Southeast 198 228 8,100 976 Climbing Salt Lake Center
Fri 18:38:12 43.4536 -116.1256 123° Southeast 205 236 9,100 677 Climbing Salt Lake Center
Fri 18:39:14 43.4186 -116.0533 124° Southeast 215 247 9,500 195 Climbing Salt Lake Center
Fri 18:40:00 43.3301 -115.8451 132° Southeast  Level FlightAware Approximate
Fri 18:40:15 43.3833 -115.9769 122° Southeast 227 261 9,500  Level Salt Lake Center
Fri 18:41:17 43.3472 -115.8994 123° Southeast 228 262 9,400  Descending Salt Lake Center
Fri 18:42:18 43.3075 -115.8369 131° Southeast 228 262 9,500  Climbing Salt Lake Center
Fri 18:43:20 43.2619 -115.7683 132° Southeast 233 268 9,400  Descending Salt Lake Center
Fri 18:44:21 43.2186 -115.6981 130° Southeast 231 266 9,500  Climbing Salt Lake Center
Fri 18:45:23 43.1783 -115.6314 130° Southeast 233 268 9,400  Descending Salt Lake Center
Fri 18:46:24 43.1336 -115.5644 132° Southeast 230 265 9,500  Climbing Salt Lake Center
Fri 18:47:26 43.0881 -115.4961 132° Southeast 231 266 9,400 -49 Descending Salt Lake Center
Fri 18:48:27 43.0400 -115.4317 136° Southeast 231 266 9,400 49 Level Salt Lake Center
Fri 18:49:29 42.9967 -115.3706 134° Southeast 233 268 9,500 48 Climbing Salt Lake Center
Fri 18:50:31 42.9525 -115.3003 131° Southeast 234 269 9,500  Level Salt Lake Center
Fri 18:51:32 42.9089 -115.2289 130° Southeast 233 268 9,500  Level Salt Lake Center
Fri 18:52:34 42.8658 -115.1600 130° Southeast 229 264 9,500  Level Salt Lake Center
Fri 18:53:35 42.8286 -115.0933 127° Southeast 228 262 9,500 -49 Level Salt Lake Center
Fri 18:54:37 42.7894 -115.0208 126° Southeast 228 262 9,400 -49 Descending Salt Lake Center
Fri 18:55:38 42.7547 -114.9442 122° Southeast 227 261 9,400  Level Salt Lake Center
Fri 18:56:40 42.7228 -114.8656 119° Southeast 228 262 9,400 49 Level Salt Lake Center
Fri 18:57:41 42.6900 -114.7942 122° Southeast 229 264 9,500  Climbing Salt Lake Center
Fri 18:58:43 42.6486 -114.7231 128° Southeast 229 264 9,400  Descending Salt Lake Center
Fri 18:59:44 42.6047 -114.6558 132° Southeast 228 262 9,500  Climbing Salt Lake Center
Fri 19:00:46 42.5575 -114.5917 135° Southeast 229 264 9,400  Descending Salt Lake Center
Fri 19:01:47 42.5133 -114.5344 136° Southeast 228 262 9,500 49 Climbing Salt Lake Center
Fri 19:02:49 42.4744 -114.4636 127° Southeast 226 260 9,500  Level Salt Lake Center
Fri 19:03:50 42.4433 -114.3836 118° Southeast 228 262 9,500  Level Salt Lake Center
Fri 19:04:51 42.4131 -114.3111 119° Southeast 229 264 9,500  Level Salt Lake Center
Fri 19:05:53 42.3817 -114.2319 118° Southeast 229 264 9,500  Level Salt Lake Center
Fri 19:06:54 42.3550 -114.1633 118° Southeast 227 261 9,500  Level Salt Lake Center
Fri 19:08:00 42.3264 -114.0823 115° Southeast  Level FlightAware Approximate
Fri 19:14:05 42.1542 -113.6069 116° Southeast 229 264 9,500  Level Salt Lake Center
Fri 19:15:00 42.1452 -113.5669 115° Southeast  Level FlightAware Approximate
Fri 19:15:06 42.1350 -113.5289 108° East 224 258 9,500  Level Salt Lake Center
Fri 19:16:00 42.1189 -113.4937 116° Southeast  Level FlightAware Approximate
Fri 19:16:08 42.1133 -113.4486 110° East 226 260 9,500  Level Salt Lake Center
Fri 19:17:00 42.0923 -113.4207 116° Southeast  Level FlightAware Approximate
Fri 19:17:09 42.0878 -113.3511 109° East 228 262 9,500  Level Salt Lake Center
Fri 19:18:00 42.0657 -113.3477 116° Southeast  Level FlightAware Approximate
Fri 19:18:11 42.0664 -113.2719 110° East 227 261 9,500  Level Salt Lake Center
Fri 19:19:00 42.0390 -113.2749 116° Southeast  Level FlightAware Approximate
Fri 19:19:12 42.0408 -113.1956 114° Southeast 227 261 9,400  Level Salt Lake Center
Fri 19:20:14 42.0036 -113.1275 126° Southeast 227 261 9,500 49 Climbing Salt Lake Center
Fri 19:21:15 41.9514 -113.0781 145° Southeast 226 260 9,500  Level Salt Lake Center
Fri 19:22:17 41.9061 -113.0194 136° Southeast 227 261 9,500  Level Salt Lake Center
Fri 19:23:19 41.8633 -112.9592 134° Southeast 225 259 9,500  Level Salt Lake Center
Fri 19:24:20 41.8203 -112.8986 134° Southeast 225 259 9,500  Level Salt Lake Center
Fri 19:25:22 41.7697 -112.8242 132° Southeast 225 259 9,500  Level Salt Lake Center
Fri 19:26:24 41.7289 -112.7614 131° Southeast 224 258 9,500  Level Salt Lake Center
Fri 19:27:25 41.6894 -112.7000 131° Southeast 222 255 9,500  Level Salt Lake Center
Fri 19:28:20 41.6558 -112.6389 126° Southeast 215 247 9,500  Level Salt Lake Center
Fri 19:28:50 41.6328 -112.6067 134° Southeast 216 249 9,500  Level Salt Lake Center
Fri 19:29:29 41.6072 -112.5808 143° Southeast 219 252 9,500  Level Salt Lake Center
Fri 19:29:51 41.5928 -112.5542 126° Southeast 218 251 9,500  Level Salt Lake Center
Fri 19:30:31 41.5639 -112.5225 141° Southeast 220 253 9,500  Level Salt Lake Center
Fri 19:30:52 41.5492 -112.4944 125° Southeast 221 254 9,500  Level Salt Lake Center
Fri 19:31:32 41.5200 -112.4667 145° Southeast 220 253 9,500  Level Salt Lake Center
Fri 19:31:52 41.5042 -112.4381 126° Southeast 224 258 9,500  Level Salt Lake Center
Fri 19:32:34 41.4628 -112.4042 148° Southeast 220 253 9,500  Level Salt Lake Center
Fri 19:32:59 41.4439 -112.3811 138° Southeast 220 253 9,500  Level Salt Lake Center
Fri 19:33:36 41.4111 -112.3572 151° Southeast 224 258 9,500 98 Level Salt Lake Center
Fri 19:34:00 41.3917 -112.3331 137° Southeast 222 255 9,600 1,139 Climbing Salt Lake Center
Fri 19:34:55 41.3486 -112.2989 149° Southeast 202 232 11,000 848 Climbing Salt Lake Center
Fri 19:35:39 41.3128 -112.2803 159° South 204 235 11,000 91 Level Salt Lake Center
Fri 19:36:01 41.2903 -112.2644 152° Southeast 216 249 11,100  Climbing Salt Lake Center
Fri 19:36:41 41.2550 -112.2508 164° South 221 254 11,000 -90 Descending Salt Lake Center
Fri 19:37:08 41.2214 -112.2308 156° South 224 258 11,000  Level Salt Lake Center
Fri 19:37:43 41.1972 -112.2208 163° South 224 258 11,000 -76 Level Salt Lake Center
Fri 19:38:27 41.1475 -112.1931 157° South 224 258 10,900 -98 Descending Salt Lake Center
Fri 19:38:44 41.1286 -112.1850 162° South 222 255 10,900 98 Level Salt Lake Center
Fri 19:39:28 41.0897 -112.1614 155° Southeast 221 254 11,000  Climbing Salt Lake Center
Fri 19:39:46 41.0725 -112.1539 162° South 220 253 10,900  Descending Salt Lake Center
Fri 19:40:04 41.0547 -112.1478 165° South 217 250 11,000 97 Climbing Salt Lake Center
Fri 19:40:48 41.0147 -112.1394 171° South 213 245 11,000  Level Salt Lake Center
Fri 19:41:49 40.9558 -112.1264 170° South 217 250 11,000  Level Salt Lake Center
Fri 19:42:11 40.9311 -112.1214 171° South 218 251 11,000  Level Salt Lake Center
Fri 19:42:51 40.8958 -112.1131 170° South 220 253 11,000  Level Salt Lake Center
Fri 19:43:06 40.8731 -112.1100 174° South 220 253 11,000  Level Salt Lake Center
Fri 19:43:53 40.8356 -112.1003 169° South 220 253 11,000 -716 Level Salt Lake Center
Fri 19:44:55 40.7650 -112.0747 165° South 222 255 9,700 -1,463 Descending Salt Lake Center
Fri 19:45:56 40.7042 -112.0550 166° South 225 259 8,000 -985 Descending Salt Lake Center
Fri 19:47:09 40.6758 -111.9928 121° Southeast 208 239 7,500 -716 Descending Salt Lake Center
Fri 19:48:10 40.7186 -111.9922 North 153 176 6,400 -1,286 Descending Salt Lake Center
Fri 19:49:01 40.7489 -111.9925 360° North 140 161 5,100 -1,115 Descending Salt Lake Center
Fri 19:50:03 40.7839 -111.9958 356° North 129 148 4,300 -774 Descending Salt Lake Center

Login

Don't have an account? Register now (free) for customized features, flight alerts, and more!